sensor_id;sensor_type;location;lat;lon;timestamp;temperature;humidity
3288;DHT22;3260;52.438;13.502;2022-07-23T04:01:25;18.90;1.00
3288;DHT22;3260;52.438;13.502;2022-07-23T04:03:54;18.90;1.00
3288;DHT22;3260;52.438;13.502;2022-07-23T04:06:22;18.90;1.00
3288;DHT22;3260;52.438;13.502;2022-07-23T04:08:50;18.90;1.00
3288;DHT22;3260;52.438;13.502;2022-07-23T04:11:18;18.90;1.00
3288;DHT22;3260;52.438;13.502;2022-07-23T04:13:48;18.90;1.00
3288;DHT22;3260;52.438;13.502;2022-07-23T04:16:16;19.00;1.00
3288;DHT22;3260;52.438;13.502;2022-07-23T04:18:45;19.00;1.00
3288;DHT22;3260;52.438;13.502;2022-07-23T04:21:13;19.10;1.00
3288;DHT22;3260;52.438;13.502;2022-07-23T04:23:42;19.20;1.00
3288;DHT22;3260;52.438;13.502;2022-07-23T04:26:10;19.20;1.00
3288;DHT22;3260;52.438;13.502;2022-07-23T04:28:43;19.20;1.00
3288;DHT22;3260;52.438;13.502;2022-07-23T04:31:12;19.20;1.00
3288;DHT22;3260;52.438;13.502;2022-07-23T04:33:40;19.20;1.00
3288;DHT22;3260;52.438;13.502;2022-07-23T04:36:09;19.20;1.00
3288;DHT22;3260;52.438;13.502;2022-07-23T04:38:38;19.10;1.00
3288;DHT22;3260;52.438;13.502;2022-07-23T04:41:06;19.20;1.00
3288;DHT22;3260;52.438;13.502;2022-07-23T04:43:34;19.10;1.00
3288;DHT22;3260;52.438;13.502;2022-07-23T04:46:02;19.10;1.00
3288;DHT22;3260;52.438;13.502;2022-07-23T04:48:32;19.10;1.00
3288;DHT22;3260;52.438;13.502;2022-07-23T04:51:02;19.00;1.00
3288;DHT22;3260;52.438;13.502;2022-07-23T04:53:32;19.00;1.00
3288;DHT22;3260;52.438;13.502;2022-07-23T04:56:00;18.90;1.00
3288;DHT22;3260;52.438;13.502;2022-07-23T04:58:28;18.90;1.00
3288;DHT22;3260;52.438;13.502;2022-07-23T05:00:56;18.80;1.00
3288;DHT22;3260;52.438;13.502;2022-07-23T05:03:24;18.70;1.00
3288;DHT22;3260;52.438;13.502;2022-07-23T05:05:52;18.60;1.00
3288;DHT22;3260;52.438;13.502;2022-07-23T05:08:21;18.60;1.00
3288;DHT22;3260;52.438;13.502;2022-07-23T05:10:50;18.60;1.00
3288;DHT22;3260;52.438;13.502;2022-07-23T05:13:18;18.50;1.00
3288;DHT22;3260;52.438;13.502;2022-07-23T05:15:47;18.60;1.00
3288;DHT22;3260;52.438;13.502;2022-07-23T05:18:15;18.50;1.00
3288;DHT22;3260;52.438;13.502;2022-07-23T05:20:43;18.50;1.00
3288;DHT22;3260;52.438;13.502;2022-07-23T05:23:11;18.50;1.00
3288;DHT22;3260;52.438;13.502;2022-07-23T05:25:39;18.50;1.00
3288;DHT22;3260;52.438;13.502;2022-07-23T05:28:09;18.60;1.00
3288;DHT22;3260;52.438;13.502;2022-07-23T05:30:37;18.60;1.00
3288;DHT22;3260;52.438;13.502;2022-07-23T05:33:05;18.70;1.00
3288;DHT22;3260;52.438;13.502;2022-07-23T05:35:34;18.70;1.00
3288;DHT22;3260;52.438;13.502;2022-07-23T05:38:02;18.60;1.00
3288;DHT22;3260;52.438;13.502;2022-07-23T05:40:31;18.60;1.00
3288;DHT22;3260;52.438;13.502;2022-07-23T05:42:59;18.60;1.00
3288;DHT22;3260;52.438;13.502;2022-07-23T05:45:29;18.70;1.00
3288;DHT22;3260;52.438;13.502;2022-07-23T05:47:57;18.70;1.00
3288;DHT22;3260;52.438;13.502;2022-07-23T05:50:25;18.70;1.00
3288;DHT22;3260;52.438;13.502;2022-07-23T05:52:53;18.60;1.00
3288;DHT22;3260;52.438;13.502;2022-07-23T05:55:21;18.70;1.00
3288;DHT22;3260;52.438;13.502;2022-07-23T05:57:49;18.70;1.00
3288;DHT22;3260;52.438;13.502;2022-07-23T06:00:17;18.70;1.00
3288;DHT22;3260;52.438;13.502;2022-07-23T06:02:47;18.70;1.00
3288;DHT22;3260;52.438;13.502;2022-07-23T06:05:21;18.70;1.00
3288;DHT22;3260;52.438;13.502;2022-07-23T06:07:50;18.70;1.00
3288;DHT22;3260;52.438;13.502;2022-07-23T06:10:19;18.70;1.00
3288;DHT22;3260;52.438;13.502;2022-07-23T06:12:47;18.70;1.00
3288;DHT22;3260;52.438;13.502;2022-07-23T06:15:15;18.70;1.00
3288;DHT22;3260;52.438;13.502;2022-07-23T06:17:44;18.60;1.00
3288;DHT22;3260;52.438;13.502;2022-07-23T06:20:13;18.70;1.00
3288;DHT22;3260;52.438;13.502;2022-07-23T06:22:41;18.60;1.00
3288;DHT22;3260;52.438;13.502;2022-07-23T06:25:09;18.60;1.00
3288;DHT22;3260;52.438;13.502;2022-07-23T06:27:45;18.60;1.00
3288;DHT22;3260;52.438;13.502;2022-07-23T06:30:14;18.70;1.00
3288;DHT22;3260;52.438;13.502;2022-07-23T06:32:44;18.70;1.00
3288;DHT22;3260;52.438;13.502;2022-07-23T06:35:14;18.60;1.00
3288;DHT22;3260;52.438;13.502;2022-07-23T06:37:43;18.60;1.00
3288;DHT22;3260;52.438;13.502;2022-07-23T06:40:14;18.60;1.00
3288;DHT22;3260;52.438;13.502;2022-07-23T06:42:42;18.60;1.00
3288;DHT22;3260;52.438;13.502;2022-07-23T06:45:10;18.60;1.00
3288;DHT22;3260;52.438;13.502;2022-07-23T06:47:38;18.70;1.00
3288;DHT22;3260;52.438;13.502;2022-07-23T06:50:08;18.70;1.00
3288;DHT22;3260;52.438;13.502;2022-07-23T06:52:38;18.70;1.00
3288;DHT22;3260;52.438;13.502;2022-07-23T06:55:09;18.90;1.00
3288;DHT22;3260;52.438;13.502;2022-07-23T06:57:37;18.90;1.00
3288;DHT22;3260;52.438;13.502;2022-07-23T07:00:06;19.10;1.00
3288;DHT22;3260;52.438;13.502;2022-07-23T07:02:35;19.20;1.00
3288;DHT22;3260;52.438;13.502;2022-07-23T07:05:04;19.40;1.00
3288;DHT22;3260;52.438;13.502;2022-07-23T07:07:33;19.50;1.00
3288;DHT22;3260;52.438;13.502;2022-07-23T07:10:03;19.60;1.00
3288;DHT22;3260;52.438;13.502;2022-07-23T07:12:31;19.60;1.00
3288;DHT22;3260;52.438;13.502;2022-07-23T07:14:59;19.50;1.00
3288;DHT22;3260;52.438;13.502;2022-07-23T07:17:28;19.40;1.00
3288;DHT22;3260;52.438;13.502;2022-07-23T07:19:56;19.50;1.00
3288;DHT22;3260;52.438;13.502;2022-07-23T07:22:24;19.60;1.00
3288;DHT22;3260;52.438;13.502;2022-07-23T07:24:52;19.60;1.00
3288;DHT22;3260;52.438;13.502;2022-07-23T07:27:21;19.70;1.00
3288;DHT22;3260;52.438;13.502;2022-07-23T07:29:49;19.80;1.00
3288;DHT22;3260;52.438;13.502;2022-07-23T07:32:18;20.00;1.00
3288;DHT22;3260;52.438;13.502;2022-07-23T07:35:07;20.10;1.00
3288;DHT22;3260;52.438;13.502;2022-07-23T07:37:35;20.30;1.00
3288;DHT22;3260;52.438;13.502;2022-07-23T07:40:04;20.50;1.00
3288;DHT22;3260;52.438;13.502;2022-07-23T07:42:34;20.70;1.00
3288;DHT22;3260;52.438;13.502;2022-07-23T07:45:11;20.90;1.00
3288;DHT22;3260;52.438;13.502;2022-07-23T07:47:39;21.10;1.00
3288;DHT22;3260;52.438;13.502;2022-07-23T07:50:08;21.30;1.00
3288;DHT22;3260;52.438;13.502;2022-07-23T07:52:38;21.40;1.00
3288;DHT22;3260;52.438;13.502;2022-07-23T07:55:08;21.40;1.00
3288;DHT22;3260;52.438;13.502;2022-07-23T07:57:39;21.50;1.00
3288;DHT22;3260;52.438;13.502;2022-07-23T08:00:16;21.60;1.00
3288;DHT22;3260;52.438;13.502;2022-07-23T08:02:46;21.70;1.00
3288;DHT22;3260;52.438;13.502;2022-07-23T08:05:19;21.80;1.00
3288;DHT22;3260;52.438;13.502;2022-07-23T08:07:54;22.00;1.00
3288;DHT22;3260;52.438;13.502;2022-07-23T08:10:22;22.20;1.00
3288;DHT22;3260;52.438;13.502;2022-07-23T08:12:54;22.30;1.00
3288;DHT22;3260;52.438;13.502;2022-07-23T08:15:26;22.30;1.00
3288;DHT22;3260;52.438;13.502;2022-07-23T08:17:56;22.20;1.00
3288;DHT22;3260;52.438;13.502;2022-07-23T08:20:25;22.20;1.00
3288;DHT22;3260;52.438;13.502;2022-07-23T08:22:57;22.10;1.00
3288;DHT22;3260;52.438;13.502;2022-07-23T08:25:28;22.10;1.00
3288;DHT22;3260;52.438;13.502;2022-07-23T08:28:00;22.10;1.00
3288;DHT22;3260;52.438;13.502;2022-07-23T08:30:30;22.10;1.00
3288;DHT22;3260;52.438;13.502;2022-07-23T08:33:01;22.20;1.00
3288;DHT22;3260;52.438;13.502;2022-07-23T08:35:33;22.40;1.00
3288;DHT22;3260;52.438;13.502;2022-07-23T08:38:04;22.60;1.00
3288;DHT22;3260;52.438;13.502;2022-07-23T08:40:35;23.00;1.00
3288;DHT22;3260;52.438;13.502;2022-07-23T08:43:12;23.50;1.00
3288;DHT22;3260;52.438;13.502;2022-07-23T08:45:43;23.70;1.00
3288;DHT22;3260;52.438;13.502;2022-07-23T08:48:14;23.80;1.00
3288;DHT22;3260;52.438;13.502;2022-07-23T08:50:44;24.00;1.00
3288;DHT22;3260;52.438;13.502;2022-07-23T08:53:15;24.30;1.00
3288;DHT22;3260;52.438;13.502;2022-07-23T08:55:44;24.40;1.00
3288;DHT22;3260;52.438;13.502;2022-07-23T08:58:15;24.40;1.00
3288;DHT22;3260;52.438;13.502;2022-07-23T09:00:44;24.50;1.00
3288;DHT22;3260;52.438;13.502;2022-07-23T09:03:16;24.50;1.00
3288;DHT22;3260;52.438;13.502;2022-07-23T09:05:46;24.60;1.00
3288;DHT22;3260;52.438;13.502;2022-07-23T09:08:17;24.60;1.00
3288;DHT22;3260;52.438;13.502;2022-07-23T09:10:53;24.40;1.00
3288;DHT22;3260;52.438;13.502;2022-07-23T09:13:31;24.20;1.00
3288;DHT22;3260;52.438;13.502;2022-07-23T09:16:05;24.20;1.00
3288;DHT22;3260;52.438;13.502;2022-07-23T09:18:38;24.10;1.00
3288;DHT22;3260;52.438;13.502;2022-07-23T09:21:16;24.20;1.00
3288;DHT22;3260;52.438;13.502;2022-07-23T09:23:48;24.40;1.00
3288;DHT22;3260;52.438;13.502;2022-07-23T09:26:28;24.60;1.00
3288;DHT22;3260;52.438;13.502;2022-07-23T09:29:12;24.80;1.00
3288;DHT22;3260;52.438;13.502;2022-07-23T09:31:49;25.10;1.00
3288;DHT22;3260;52.438;13.502;2022-07-23T09:34:20;25.30;1.00
3288;DHT22;3260;52.438;13.502;2022-07-23T09:36:51;25.50;1.00
3288;DHT22;3260;52.438;13.502;2022-07-23T09:39:27;25.70;1.00
3288;DHT22;3260;52.438;13.502;2022-07-23T09:41:57;26.20;1.00
3288;DHT22;3260;52.438;13.502;2022-07-23T09:44:27;26.40;1.00
3288;DHT22;3260;52.438;13.502;2022-07-23T09:46:58;26.50;1.00
3288;DHT22;3260;52.438;13.502;2022-07-23T09:49:28;26.50;1.00
3288;DHT22;3260;52.438;13.502;2022-07-23T09:51:58;26.60;1.00
3288;DHT22;3260;52.438;13.502;2022-07-23T09:54:30;26.80;1.00
3288;DHT22;3260;52.438;13.502;2022-07-23T09:57:04;27.00;1.00
3288;DHT22;3260;52.438;13.502;2022-07-23T09:59:37;27.00;1.00
3288;DHT22;3260;52.438;13.502;2022-07-23T10:02:08;27.00;1.00
3288;DHT22;3260;52.438;13.502;2022-07-23T10:04:39;27.00;1.00
3288;DHT22;3260;52.438;13.502;2022-07-23T10:07:08;27.10;1.00
3288;DHT22;3260;52.438;13.502;2022-07-23T10:09:39;27.30;1.00
3288;DHT22;3260;52.438;13.502;2022-07-23T10:12:11;27.20;1.00
3288;DHT22;3260;52.438;13.502;2022-07-23T10:14:49;27.20;1.00
3288;DHT22;3260;52.438;13.502;2022-07-23T10:17:18;27.00;1.00
3288;DHT22;3260;52.438;13.502;2022-07-23T10:19:47;27.00;1.00
3288;DHT22;3260;52.438;13.502;2022-07-23T10:22:19;27.00;1.00
3288;DHT22;3260;52.438;13.502;2022-07-23T10:25:00;26.90;1.00
3288;DHT22;3260;52.438;13.502;2022-07-23T10:27:53;26.90;1.00
3288;DHT22;3260;52.438;13.502;2022-07-23T10:30:36;27.30;1.00
3288;DHT22;3260;52.438;13.502;2022-07-23T10:33:27;27.60;1.00
3288;DHT22;3260;52.438;13.502;2022-07-23T10:36:04;28.10;1.00
3288;DHT22;3260;52.438;13.502;2022-07-23T10:38:42;28.40;1.00
3288;DHT22;3260;52.438;13.502;2022-07-23T10:41:31;28.90;1.00
3288;DHT22;3260;52.438;13.502;2022-07-23T10:44:08;29.30;1.00
3288;DHT22;3260;52.438;13.502;2022-07-23T10:46:57;29.50;1.00
3288;DHT22;3260;52.438;13.502;2022-07-23T10:49:40;29.80;1.00
3288;DHT22;3260;52.438;13.502;2022-07-23T10:52:31;30.30;1.00
3288;DHT22;3260;52.438;13.502;2022-07-23T10:58:08;29.80;1.00
3288;DHT22;3260;52.438;13.502;2022-07-23T11:00:37;29.00;1.00
3288;DHT22;3260;52.438;13.502;2022-07-23T11:03:29;28.80;1.00
3288;DHT22;3260;52.438;13.502;2022-07-23T11:06:05;28.70;1.00
3288;DHT22;3260;52.438;13.502;2022-07-23T11:08:33;28.70;1.00
3288;DHT22;3260;52.438;13.502;2022-07-23T11:11:10;28.70;1.00
3288;DHT22;3260;52.438;13.502;2022-07-23T11:13:48;28.50;1.00
3288;DHT22;3260;52.438;13.502;2022-07-23T11:16:19;28.60;1.00
3288;DHT22;3260;52.438;13.502;2022-07-23T11:18:59;29.00;1.00
3288;DHT22;3260;52.438;13.502;2022-07-23T11:21:55;29.20;1.00
3288;DHT22;3260;52.438;13.502;2022-07-23T11:24:25;29.20;1.00
3288;DHT22;3260;52.438;13.502;2022-07-23T11:26:59;29.30;1.00
3288;DHT22;3260;52.438;13.502;2022-07-23T11:29:42;29.70;1.00
3288;DHT22;3260;52.438;13.502;2022-07-23T11:32:29;30.10;1.00
3288;DHT22;3260;52.438;13.502;2022-07-23T11:35:35;30.40;1.00
3288;DHT22;3260;52.438;13.502;2022-07-23T11:38:14;30.60;1.00
3288;DHT22;3260;52.438;13.502;2022-07-23T11:40:48;31.10;1.00
3288;DHT22;3260;52.438;13.502;2022-07-23T11:43:18;31.90;1.00
3288;DHT22;3260;52.438;13.502;2022-07-23T11:45:48;32.40;1.00
3288;DHT22;3260;52.438;13.502;2022-07-23T11:48:20;33.10;1.00
3288;DHT22;3260;52.438;13.502;2022-07-23T11:50:51;33.70;1.00
3288;DHT22;3260;52.438;13.502;2022-07-23T11:53:25;34.20;1.00
3288;DHT22;3260;52.438;13.502;2022-07-23T11:55:57;34.70;1.00
3288;DHT22;3260;52.438;13.502;2022-07-23T11:58:31;35.30;1.00
3288;DHT22;3260;52.438;13.502;2022-07-23T12:00:59;35.90;1.00
3288;DHT22;3260;52.438;13.502;2022-07-23T12:03:27;36.10;1.00
3288;DHT22;3260;52.438;13.502;2022-07-23T12:05:58;35.40;1.00
3288;DHT22;3260;52.438;13.502;2022-07-23T12:08:27;35.10;1.00
3288;DHT22;3260;52.438;13.502;2022-07-23T12:10:56;35.50;1.00
3288;DHT22;3260;52.438;13.502;2022-07-23T12:13:24;35.90;1.00
3288;DHT22;3260;52.438;13.502;2022-07-23T12:15:54;35.70;1.00
3288;DHT22;3260;52.438;13.502;2022-07-23T12:18:26;36.30;1.00
3288;DHT22;3260;52.438;13.502;2022-07-23T12:20:57;36.90;1.00
3288;DHT22;3260;52.438;13.502;2022-07-23T12:23:32;36.70;1.00
3288;DHT22;3260;52.438;13.502;2022-07-23T12:26:01;35.50;1.00
3288;DHT22;3260;52.438;13.502;2022-07-23T12:28:31;34.40;1.00
3288;DHT22;3260;52.438;13.502;2022-07-23T12:31:00;33.40;1.00
3288;DHT22;3260;52.438;13.502;2022-07-23T12:33:30;32.60;1.00
3288;DHT22;3260;52.438;13.502;2022-07-23T12:36:02;31.70;1.00
3288;DHT22;3260;52.438;13.502;2022-07-23T12:38:37;31.90;1.00
3288;DHT22;3260;52.438;13.502;2022-07-23T12:41:07;32.00;1.00
3288;DHT22;3260;52.438;13.502;2022-07-23T12:43:38;32.40;1.00
3288;DHT22;3260;52.438;13.502;2022-07-23T12:46:09;32.50;1.00
3288;DHT22;3260;52.438;13.502;2022-07-23T12:48:51;31.80;1.00
3288;DHT22;3260;52.438;13.502;2022-07-23T12:51:23;31.50;1.00
3288;DHT22;3260;52.438;13.502;2022-07-23T12:53:56;31.20;1.00
3288;DHT22;3260;52.438;13.502;2022-07-23T12:56:28;30.30;1.00
3288;DHT22;3260;52.438;13.502;2022-07-23T12:58:58;29.80;1.00
3288;DHT22;3260;52.438;13.502;2022-07-23T13:01:35;29.60;1.00
3288;DHT22;3260;52.438;13.502;2022-07-23T13:04:06;29.60;1.00
3288;DHT22;3260;52.438;13.502;2022-07-23T13:06:43;30.10;1.00
3288;DHT22;3260;52.438;13.502;2022-07-23T13:09:14;31.80;1.00
3288;DHT22;3260;52.438;13.502;2022-07-23T13:11:45;33.30;1.00
3288;DHT22;3260;52.438;13.502;2022-07-23T13:14:15;35.10;1.00
3288;DHT22;3260;52.438;13.502;2022-07-23T13:16:48;35.90;1.00
3288;DHT22;3260;52.438;13.502;2022-07-23T13:19:18;36.10;1.00
3288;DHT22;3260;52.438;13.502;2022-07-23T13:21:50;35.60;1.00
3288;DHT22;3260;52.438;13.502;2022-07-23T13:24:18;35.90;1.00
3288;DHT22;3260;52.438;13.502;2022-07-23T13:26:48;36.40;1.00
3288;DHT22;3260;52.438;13.502;2022-07-23T13:29:18;36.40;1.00
3288;DHT22;3260;52.438;13.502;2022-07-23T13:31:47;35.90;1.00
3288;DHT22;3260;52.438;13.502;2022-07-23T13:34:16;36.90;1.00
3288;DHT22;3260;52.438;13.502;2022-07-23T13:36:46;39.20;1.00
3288;DHT22;3260;52.438;13.502;2022-07-23T13:39:15;40.30;1.00
3288;DHT22;3260;52.438;13.502;2022-07-23T13:41:43;41.10;1.00
3288;DHT22;3260;52.438;13.502;2022-07-23T13:44:16;40.60;1.00
3288;DHT22;3260;52.438;13.502;2022-07-23T13:46:48;39.40;1.00
3288;DHT22;3260;52.438;13.502;2022-07-23T13:49:17;38.50;1.00
3288;DHT22;3260;52.438;13.502;2022-07-23T13:51:45;38.50;1.00
3288;DHT22;3260;52.438;13.502;2022-07-23T13:54:15;39.40;1.00
3288;DHT22;3260;52.438;13.502;2022-07-23T13:56:44;40.00;1.00
3288;DHT22;3260;52.438;13.502;2022-07-23T13:59:12;40.10;1.00
3288;DHT22;3260;52.438;13.502;2022-07-23T14:01:41;39.60;1.00
3288;DHT22;3260;52.438;13.502;2022-07-23T14:04:29;39.80;1.00
3288;DHT22;3260;52.438;13.502;2022-07-23T14:06:57;39.20;1.00
3288;DHT22;3260;52.438;13.502;2022-07-23T14:09:27;38.80;1.00
3288;DHT22;3260;52.438;13.502;2022-07-23T14:11:56;38.90;1.00
3288;DHT22;3260;52.438;13.502;2022-07-23T14:14:24;38.70;1.00
3288;DHT22;3260;52.438;13.502;2022-07-23T14:16:53;39.00;1.00
3288;DHT22;3260;52.438;13.502;2022-07-23T14:19:22;39.50;1.00
3288;DHT22;3260;52.438;13.502;2022-07-23T14:21:51;40.30;1.00
3288;DHT22;3260;52.438;13.502;2022-07-23T14:24:19;41.50;1.00
3288;DHT22;3260;52.438;13.502;2022-07-23T14:26:49;43.10;1.00
3288;DHT22;3260;52.438;13.502;2022-07-23T14:29:17;43.40;1.00
3288;DHT22;3260;52.438;13.502;2022-07-23T14:31:46;41.20;1.00
3288;DHT22;3260;52.438;13.502;2022-07-23T14:34:15;38.90;1.00
3288;DHT22;3260;52.438;13.502;2022-07-23T14:36:50;37.50;1.00
3288;DHT22;3260;52.438;13.502;2022-07-23T14:39:18;38.60;1.00
3288;DHT22;3260;52.438;13.502;2022-07-23T14:41:46;38.00;1.00
3288;DHT22;3260;52.438;13.502;2022-07-23T14:44:16;36.60;1.00
3288;DHT22;3260;52.438;13.502;2022-07-23T14:46:45;35.50;1.00
3288;DHT22;3260;52.438;13.502;2022-07-23T14:49:13;35.50;1.00
3288;DHT22;3260;52.438;13.502;2022-07-23T14:51:42;37.20;1.00
3288;DHT22;3260;52.438;13.502;2022-07-23T14:54:11;38.90;1.00
3288;DHT22;3260;52.438;13.502;2022-07-23T14:56:40;40.20;1.00
3288;DHT22;3260;52.438;13.502;2022-07-23T14:59:12;41.00;1.00
3288;DHT22;3260;52.438;13.502;2022-07-23T15:01:41;41.90;1.00
3288;DHT22;3260;52.438;13.502;2022-07-23T15:04:09;43.30;1.00
3288;DHT22;3260;52.438;13.502;2022-07-23T15:06:57;43.90;1.00
3288;DHT22;3260;52.438;13.502;2022-07-23T15:09:25;42.70;1.00
3288;DHT22;3260;52.438;13.502;2022-07-23T15:11:55;42.40;1.00
3288;DHT22;3260;52.438;13.502;2022-07-23T15:14:25;43.60;1.00
3288;DHT22;3260;52.438;13.502;2022-07-23T15:17:00;43.70;1.00
3288;DHT22;3260;52.438;13.502;2022-07-23T15:19:28;44.00;1.00
3288;DHT22;3260;52.438;13.502;2022-07-23T15:21:57;44.90;1.00
3288;DHT22;3260;52.438;13.502;2022-07-23T15:24:28;46.10;1.00
3288;DHT22;3260;52.438;13.502;2022-07-23T15:26:56;47.00;1.00
3288;DHT22;3260;52.438;13.502;2022-07-23T15:29:25;46.60;1.00
3288;DHT22;3260;52.438;13.502;2022-07-23T15:32:13;45.70;1.00
3288;DHT22;3260;52.438;13.502;2022-07-23T15:34:43;43.90;1.00
3288;DHT22;3260;52.438;13.502;2022-07-23T15:37:13;41.90;1.00
3288;DHT22;3260;52.438;13.502;2022-07-23T15:39:43;39.70;1.00
3288;DHT22;3260;52.438;13.502;2022-07-23T15:42:12;37.90;1.00
3288;DHT22;3260;52.438;13.502;2022-07-23T15:44:42;36.50;1.00
3288;DHT22;3260;52.438;13.502;2022-07-23T15:47:13;35.40;1.00
3288;DHT22;3260;52.438;13.502;2022-07-23T15:49:43;35.60;1.00
3288;DHT22;3260;52.438;13.502;2022-07-23T15:52:13;35.30;1.00
3288;DHT22;3260;52.438;13.502;2022-07-23T15:54:42;34.50;1.00
3288;DHT22;3260;52.438;13.502;2022-07-23T15:57:10;34.20;1.00
3288;DHT22;3260;52.438;13.502;2022-07-23T15:59:38;34.20;1.00
3288;DHT22;3260;52.438;13.502;2022-07-23T16:02:08;33.80;1.00
3288;DHT22;3260;52.438;13.502;2022-07-23T16:04:38;33.80;1.00
3288;DHT22;3260;52.438;13.502;2022-07-23T16:07:06;33.30;1.00
3288;DHT22;3260;52.438;13.502;2022-07-23T16:09:40;33.30;1.00
3288;DHT22;3260;52.438;13.502;2022-07-23T16:12:09;34.40;1.00
3288;DHT22;3260;52.438;13.502;2022-07-23T16:14:37;35.70;1.00
3288;DHT22;3260;52.438;13.502;2022-07-23T16:17:05;34.80;1.00
3288;DHT22;3260;52.438;13.502;2022-07-23T16:19:36;33.70;1.00
3288;DHT22;3260;52.438;13.502;2022-07-23T16:22:04;33.60;1.00
3288;DHT22;3260;52.438;13.502;2022-07-23T16:24:32;33.40;1.00
3288;DHT22;3260;52.438;13.502;2022-07-23T16:27:00;33.10;1.00
3288;DHT22;3260;52.438;13.502;2022-07-23T16:29:32;33.70;1.00
3288;DHT22;3260;52.438;13.502;2022-07-23T16:32:00;35.00;1.00
3288;DHT22;3260;52.438;13.502;2022-07-23T16:34:29;36.60;1.00
3288;DHT22;3260;52.438;13.502;2022-07-23T16:36:57;37.60;1.00
3288;DHT22;3260;52.438;13.502;2022-07-23T16:39:26;38.00;1.00
3288;DHT22;3260;52.438;13.502;2022-07-23T16:41:54;38.10;1.00
3288;DHT22;3260;52.438;13.502;2022-07-23T16:44:22;37.80;1.00
3288;DHT22;3260;52.438;13.502;2022-07-23T16:46:50;35.50;1.00
3288;DHT22;3260;52.438;13.502;2022-07-23T16:49:18;33.90;1.00
3288;DHT22;3260;52.438;13.502;2022-07-23T16:51:47;32.80;1.00
3288;DHT22;3260;52.438;13.502;2022-07-23T16:54:16;32.30;1.00
3288;DHT22;3260;52.438;13.502;2022-07-23T16:56:47;32.40;1.00
3288;DHT22;3260;52.438;13.502;2022-07-23T16:59:15;33.30;1.00
3288;DHT22;3260;52.438;13.502;2022-07-23T17:01:43;34.00;1.00
3288;DHT22;3260;52.438;13.502;2022-07-23T17:04:11;35.20;1.00
3288;DHT22;3260;52.438;13.502;2022-07-23T17:06:39;36.20;1.00
3288;DHT22;3260;52.438;13.502;2022-07-23T17:09:09;37.10;1.00
3288;DHT22;3260;52.438;13.502;2022-07-23T17:11:38;37.50;1.00
3288;DHT22;3260;52.438;13.502;2022-07-23T17:14:06;38.00;1.00
3288;DHT22;3260;52.438;13.502;2022-07-23T17:16:40;38.10;1.00
3288;DHT22;3260;52.438;13.502;2022-07-23T17:19:08;38.00;1.00
3288;DHT22;3260;52.438;13.502;2022-07-23T17:21:36;37.70;1.00
3288;DHT22;3260;52.438;13.502;2022-07-23T17:24:04;37.10;1.00
3288;DHT22;3260;52.438;13.502;2022-07-23T17:26:38;36.40;1.00
3288;DHT22;3260;52.438;13.502;2022-07-23T17:29:10;35.30;1.00
3288;DHT22;3260;52.438;13.502;2022-07-23T17:31:39;33.80;1.00
3288;DHT22;3260;52.438;13.502;2022-07-23T17:34:08;32.50;1.00
3288;DHT22;3260;52.438;13.502;2022-07-23T17:36:36;31.60;1.00
3288;DHT22;3260;52.438;13.502;2022-07-23T17:39:05;31.30;1.00
3288;DHT22;3260;52.438;13.502;2022-07-23T17:41:35;31.40;1.00
3288;DHT22;3260;52.438;13.502;2022-07-23T17:44:04;31.90;1.00
3288;DHT22;3260;52.438;13.502;2022-07-23T17:46:33;32.20;1.00
3288;DHT22;3260;52.438;13.502;2022-07-23T17:49:01;32.50;1.00
3288;DHT22;3260;52.438;13.502;2022-07-23T17:51:29;32.80;1.00
3288;DHT22;3260;52.438;13.502;2022-07-23T17:53:58;32.90;1.00
3288;DHT22;3260;52.438;13.502;2022-07-23T17:56:26;33.00;1.00
3288;DHT22;3260;52.438;13.502;2022-07-23T17:58:55;32.90;1.00
3288;DHT22;3260;52.438;13.502;2022-07-23T18:01:24;32.70;1.00
3288;DHT22;3260;52.438;13.502;2022-07-23T18:03:52;32.50;1.00
3288;DHT22;3260;52.438;13.502;2022-07-23T18:06:21;32.40;1.00
3288;DHT22;3260;52.438;13.502;2022-07-23T18:08:50;32.20;1.00
3288;DHT22;3260;52.438;13.502;2022-07-23T18:11:18;31.80;1.00
3288;DHT22;3260;52.438;13.502;2022-07-23T18:13:47;31.00;1.00
3288;DHT22;3260;52.438;13.502;2022-07-23T18:16:15;30.20;1.00
3288;DHT22;3260;52.438;13.502;2022-07-23T18:18:45;29.40;1.00
3288;DHT22;3260;52.438;13.502;2022-07-23T18:21:14;28.60;1.00
3288;DHT22;3260;52.438;13.502;2022-07-23T18:23:42;27.90;1.00
3288;DHT22;3260;52.438;13.502;2022-07-23T18:26:10;27.10;1.00
3288;DHT22;3260;52.438;13.502;2022-07-23T18:28:41;26.50;1.00
3288;DHT22;3260;52.438;13.502;2022-07-23T18:31:09;25.90;1.00
3288;DHT22;3260;52.438;13.502;2022-07-23T18:33:42;25.50;1.00
3288;DHT22;3260;52.438;13.502;2022-07-23T18:36:12;25.10;1.00
3288;DHT22;3260;52.438;13.502;2022-07-23T18:38:40;24.70;1.00
3288;DHT22;3260;52.438;13.502;2022-07-23T18:41:11;24.30;1.00
3288;DHT22;3260;52.438;13.502;2022-07-23T18:43:39;24.00;1.00
3288;DHT22;3260;52.438;13.502;2022-07-23T18:46:07;23.70;1.00
3288;DHT22;3260;52.438;13.502;2022-07-23T18:48:36;23.40;1.00
3288;DHT22;3260;52.438;13.502;2022-07-23T18:51:07;23.30;1.00
3288;DHT22;3260;52.438;13.502;2022-07-23T18:53:37;23.10;1.00
3288;DHT22;3260;52.438;13.502;2022-07-23T18:56:05;23.00;1.00
3288;DHT22;3260;52.438;13.502;2022-07-23T18:58:33;22.80;1.00
3288;DHT22;3260;52.438;13.502;2022-07-23T19:01:02;22.70;1.00
3288;DHT22;3260;52.438;13.502;2022-07-23T19:03:31;22.60;1.00
3288;DHT22;3260;52.438;13.502;2022-07-23T19:05:59;22.40;1.00
3288;DHT22;3260;52.438;13.502;2022-07-23T19:08:28;22.30;1.00
3288;DHT22;3260;52.438;13.502;2022-07-23T19:10:59;22.10;1.00
3288;DHT22;3260;52.438;13.502;2022-07-23T19:13:27;22.00;1.00
3288;DHT22;3260;52.438;13.502;2022-07-23T19:15:55;21.90;1.00
3288;DHT22;3260;52.438;13.502;2022-07-23T19:18:27;21.80;1.00
3288;DHT22;3260;52.438;13.502;2022-07-23T19:20:56;21.60;1.00
3288;DHT22;3260;52.438;13.502;2022-07-23T19:23:24;21.50;1.00
3288;DHT22;3260;52.438;13.502;2022-07-23T19:25:52;21.50;1.00
3288;DHT22;3260;52.438;13.502;2022-07-23T19:28:21;21.30;1.00
3288;DHT22;3260;52.438;13.502;2022-07-23T19:30:50;21.30;1.00
3288;DHT22;3260;52.438;13.502;2022-07-23T19:33:18;21.20;1.00
3288;DHT22;3260;52.438;13.502;2022-07-23T19:35:46;21.10;1.00
3288;DHT22;3260;52.438;13.502;2022-07-23T19:38:15;21.00;1.00
3288;DHT22;3260;52.438;13.502;2022-07-23T19:40:44;20.90;1.00
3288;DHT22;3260;52.438;13.502;2022-07-23T19:43:12;20.90;1.00
3288;DHT22;3260;52.438;13.502;2022-07-23T19:45:42;20.70;1.00
3288;DHT22;3260;52.438;13.502;2022-07-23T19:48:10;20.70;1.00
3288;DHT22;3260;52.438;13.502;2022-07-23T19:50:38;20.60;1.00
3288;DHT22;3260;52.438;13.502;2022-07-23T19:53:07;20.50;1.00
3288;DHT22;3260;52.438;13.502;2022-07-23T19:55:35;20.50;1.00
3288;DHT22;3260;52.438;13.502;2022-07-23T19:58:03;20.50;1.00
3288;DHT22;3260;52.438;13.502;2022-07-23T20:00:32;20.40;1.00
3288;DHT22;3260;52.438;13.502;2022-07-23T20:03:02;20.30;1.00
3288;DHT22;3260;52.438;13.502;2022-07-23T20:05:30;20.30;1.00
3288;DHT22;3260;52.438;13.502;2022-07-23T20:07:59;20.30;1.00
3288;DHT22;3260;52.438;13.502;2022-07-23T20:10:27;20.20;1.00
3288;DHT22;3260;52.438;13.502;2022-07-23T20:12:55;20.20;1.00
3288;DHT22;3260;52.438;13.502;2022-07-23T20:15:23;20.10;1.00
3288;DHT22;3260;52.438;13.502;2022-07-23T20:17:51;20.10;1.00
3288;DHT22;3260;52.438;13.502;2022-07-23T20:20:21;20.00;1.00
3288;DHT22;3260;52.438;13.502;2022-07-23T20:22:49;20.00;1.00
3288;DHT22;3260;52.438;13.502;2022-07-23T20:25:17;19.90;1.00
3288;DHT22;3260;52.438;13.502;2022-07-23T20:27:45;19.80;1.00